Amherst, New Hampshire
Current Conditions -  °F | °C
As of 5:51 AM on Sunday 23 Nov 2014 (Local Time) from KASH Reporting Station
Few Clouds Few Clouds  
Wind Chill:   Ceiling: Unl
Heat Index:   Visibility: 10mi
Dew Point: -1°   Wind: 0mph
Humidity: 63%   Direction: NA
Pressure: 30.06"   Gusts: NA
Location:  42.86°N, 71.63°W
Report Text: KASH 231051Z AUTO 00000KT 10SM FEW120 06/M01 A3006 RMK AO2 T00551011 SLP434
Loading
Personal Weather Stations






























Interactive Weather Map New forecast layout! Learn more

10-Day Weather Forecast

Advertisements
Track Severe Weather on mobile